Time;durP1;ratioP1;P1;durP2;ratioP2;P2;SDS_P1;SDS_P2;PMS_P1;PMS_P2;Temp;Humidity;BMP_temperature;BMP_pressure;BME280_temperature;BME280_humidity;BME280_pressure;Samples;Min_cycle;Max_cycle;Signal;HPM_P1;HPM_P2
2022/01/02 00:01:24;;;;;;;8.75;4.80;;;;;;;8.92;86.05;98331.34;1710238;82;21018;-73
2022/01/02 00:03:52;;;;;;;8.38;4.90;;;;;;;8.97;86.12;98334.81;1757646;79;21020;-72
2022/01/02 00:06:26;;;;;;;8.15;4.67;;;;;;;9.01;85.44;98334.30;1770661;80;21042;-73
2022/01/02 00:09:04;;;;;;;6.60;4.58;;;;;;;9.06;85.97;98332.44;1713479;83;20993;-72
2022/01/02 00:11:30;;;;;;;5.97;4.30;;;;;;;9.10;85.52;98338.95;1717225;83;21078;-72
2022/01/02 00:14:06;;;;;;;6.45;4.60;;;;;;;9.16;85.65;98334.02;1774146;79;21065;-73
2022/01/02 00:16:35;;;;;;;7.35;4.70;;;;;;;9.19;85.70;98339.70;1772204;80;21002;-73
2022/01/02 00:19:16;;;;;;;6.72;4.58;;;;;;;9.24;85.35;98335.20;1756393;80;20989;-73
2022/01/02 00:21:41;;;;;;;5.62;3.67;;;;;;;9.26;85.58;98336.02;1758244;80;20997;-73
2022/01/02 00:24:12;;;;;;;8.35;4.12;;;;;;;9.27;85.68;98335.59;1757632;80;20958;-73
2022/01/02 00:26:43;;;;;;;5.95;3.75;;;;;;;9.30;85.42;98334.22;1760449;80;20982;-73
2022/01/02 00:29:09;;;;;;;5.83;3.70;;;;;;;9.31;84.84;98335.95;1771289;79;20994;-73
2022/01/02 00:31:36;;;;;;;5.33;3.72;;;;;;;9.33;85.15;98339.43;1766148;80;21097;-73
2022/01/02 00:34:05;;;;;;;5.60;3.65;;;;;;;9.31;84.78;98342.13;1766426;79;21439;-71
2022/01/02 00:36:32;;;;;;;5.00;3.60;;;;;;;9.32;84.98;98342.55;1760674;80;20970;-71
2022/01/02 00:38:59;;;;;;;6.40;3.80;;;;;;;9.31;84.12;98342.56;1714742;83;21431;-71
2022/01/02 00:41:37;;;;;;;6.97;3.65;;;;;;;9.30;84.51;98341.68;1716366;83;21013;-71
2022/01/02 00:44:30;;;;;;;6.15;3.83;;;;;;;9.26;82.47;98344.42;1707973;82;21454;-72
2022/01/02 00:47:08;;;;;;;5.97;3.92;;;;;;;9.28;84.28;98346.58;1706524;83;21021;-72
2022/01/02 00:49:41;;;;;;;7.45;3.83;;;;;;;9.23;84.44;98341.39;1712729;83;21025;-72
2022/01/02 00:52:17;;;;;;;7.00;4.30;;;;;;;9.21;84.49;98344.05;1715238;82;20980;-73
2022/01/02 00:54:47;;;;;;;6.17;4.15;;;;;;;9.17;84.30;98338.87;1702916;82;21398;-72
2022/01/02 00:57:18;;;;;;;6.30;4.15;;;;;;;9.12;84.04;98334.97;1701903;83;20973;-72
2022/01/02 01:00:08;;;;;;;9.10;4.22;;;;;;;9.09;83.57;98337.66;1705612;82;21010;-72
2022/01/02 01:02:48;;;;;;;6.20;3.62;;;;;;;9.08;84.18;98342.53;1710725;83;20950;-72
2022/01/02 01:05:25;;;;;;;6.55;4.30;;;;;;;9.06;84.14;98339.05;1711446;82;21037;-72
2022/01/02 01:07:55;;;;;;;6.22;3.90;;;;;;;9.03;83.77;98334.69;1752191;81;21013;-72
2022/01/02 01:10:26;;;;;;;6.55;4.30;;;;;;;9.01;83.95;98347.05;1762012;80;21028;-72
2022/01/02 01:12:55;;;;;;;8.55;3.98;;;;;;;8.97;84.01;98347.56;1715921;83;20985;-71
2022/01/02 01:15:24;;;;;;;7.35;4.40;;;;;;;8.96;84.07;98343.61;1708024;82;21053;-72
2022/01/02 01:17:53;;;;;;;6.10;4.12;;;;;;;8.94;84.27;98354.23;1710783;82;21009;-72
2022/01/02 01:20:20;;;;;;;9.70;4.50;;;;;;;8.90;84.33;98351.22;1716460;82;21432;-72
2022/01/02 01:22:46;;;;;;;7.45;3.80;;;;;;;8.87;84.38;98357.87;1770932;80;20942;-71
2022/01/02 01:25:16;;;;;;;6.80;4.20;;;;;;;8.82;84.39;98359.28;1715162;83;21017;-72
2022/01/02 01:27:47;;;;;;;5.15;3.80;;;;;;;8.80;84.49;98362.37;1767642;80;21407;-72
2022/01/02 01:30:18;;;;;;;6.80;4.47;;;;;;;8.79;84.54;98361.97;1709566;83;21041;-73
2022/01/02 01:32:46;;;;;;;6.17;4.05;;;;;;;8.78;84.57;98366.83;1704705;82;21038;-72
2022/01/02 01:35:14;;;;;;;6.08;4.25;;;;;;;8.77;84.44;98365.09;1728375;82;20991;-71
2022/01/02 01:37:42;;;;;;;5.20;3.70;;;;;;;8.76;84.31;98367.28;1688517;83;21015;-75
2022/01/02 01:40:12;;;;;;;4.30;3.55;;;;;;;8.75;84.42;98368.66;1740477;80;21012;-76
2022/01/02 01:42:41;;;;;;;6.28;4.33;;;;;;;8.73;84.42;98365.16;1750298;80;21025;-75
2022/01/02 01:47:50;;;;;;;5.72;3.70;;;;;;;8.71;84.25;98363.41;1735973;81;21008;-75
2022/01/02 01:50:20;;;;;;;6.40;4.28;;;;;;;8.70;83.91;98362.11;1736094;83;21160;-75
2022/01/02 01:52:47;;;;;;;7.08;5.00;;;;;;;8.69;83.74;98364.34;1736400;83;21091;-75
2022/01/02 01:55:16;;;;;;;6.12;4.22;;;;;;;8.67;83.78;98368.31;1736241;83;21071;-75
2022/01/02 01:57:44;;;;;;;5.65;4.35;;;;;;;8.64;83.73;98376.75;1716450;81;21050;-75
2022/01/02 02:00:15;;;;;;;10.28;3.92;;;;;;;8.62;83.95;98370.59;1736291;83;21013;-75
2022/01/02 02:02:47;;;;;;;5.97;3.70;;;;;;;8.64;83.72;98364.86;1735655;83;21072;-75
2022/01/02 02:05:15;;;;;;;5.55;3.60;;;;;;;8.66;83.64;98371.86;1736840;82;21010;-75
2022/01/02 02:07:45;;;;;;;5.72;3.80;;;;;;;8.68;83.36;98373.17;1745919;81;21033;-75
2022/01/02 02:10:23;;;;;;;4.50;3.52;;;;;;;8.69;83.89;98361.23;1763552;81;21017;-76
2022/01/02 02:12:48;;;;;;;5.17;3.60;;;;;;;8.71;83.58;98366.49;1766687;81;21025;-76
2022/01/02 02:15:17;;;;;;;4.58;3.60;;;;;;;8.72;83.62;98361.63;1764731;81;21009;-76
2022/01/02 02:17:47;;;;;;;4.80;3.70;;;;;;;8.74;83.96;98366.89;1762384;80;21574;-76
2022/01/02 02:20:32;;;;;;;5.87;3.20;;;;;;;8.76;84.40;98373.05;1764164;81;21028;-76
2022/01/02 02:23:02;;;;;;;4.67;3.10;;;;;;;8.77;84.44;98376.10;1763508;81;21034;-75
2022/01/02 02:25:35;;;;;;;4.55;3.20;;;;;;;8.80;84.41;98374.74;1764553;81;20994;-75
2022/01/02 02:28:15;;;;;;;6.30;3.30;;;;;;;8.81;83.76;98381.77;1764353;81;20989;-75
2022/01/02 02:30:46;;;;;;;5.37;3.65;;;;;;;8.81;83.96;98372.05;1733603;81;21250;-75
2022/01/02 02:33:15;;;;;;;4.60;3.33;;;;;;;8.82;83.17;98377.78;1743003;82;21052;-75
2022/01/02 02:35:44;;;;;;;4.72;3.20;;;;;;;8.80;83.55;98383.52;1742974;82;20996;-75
2022/01/02 02:38:12;;;;;;;4.22;3.50;;;;;;;8.78;83.71;98382.69;1725527;81;21017;-75
2022/01/02 02:40:41;;;;;;;5.75;3.90;;;;;;;8.79;83.81;98382.22;1793587;80;20966;-74
2022/01/02 02:51:25;;;;;;;6.95;4.05;;;;;;;8.57;83.09;98387.42;1764546;81;20970;-75
2022/01/02 02:53:51;;;;;;;6.72;4.05;;;;;;;8.52;83.40;98378.66;1710008;84;21004;-75
2022/01/02 02:56:24;;;;;;;7.20;4.37;;;;;;;8.49;83.46;98383.98;1703608;84;21076;-75
2022/01/02 02:58:57;;;;;;;5.50;3.70;;;;;;;8.41;83.61;98388.48;1695120;84;21024;-75
2022/01/02 03:01:28;;;;;;;5.22;3.45;;;;;;;8.39;83.75;98388.50;1672679;86;20969;-75
2022/01/02 03:03:56;;;;;;;6.97;4.45;;;;;;;8.38;83.78;98391.20;1672853;85;21056;-75
2022/01/02 03:06:23;;;;;;;6.03;3.67;;;;;;;8.32;83.81;98390.36;1676578;86;21003;-75
2022/01/02 03:08:52;;;;;;;6.87;4.12;;;;;;;8.28;83.95;98392.64;1699020;84;21004;-75
2022/01/02 03:11:21;;;;;;;5.78;3.98;;;;;;;8.25;84.26;98392.67;1711804;83;21416;-75
2022/01/02 03:13:51;;;;;;;6.35;4.45;;;;;;;8.19;84.09;98388.80;1728494;82;21007;-75
2022/01/02 03:16:19;;;;;;;5.83;4.33;;;;;;;8.12;84.25;98393.72;1732715;83;21011;-75
2022/01/02 03:18:45;;;;;;;7.08;4.60;;;;;;;8.03;84.34;98393.41;1732778;83;21043;-75
2022/01/02 03:21:13;;;;;;;7.40;4.53;;;;;;;7.95;84.85;98397.90;1732720;83;21007;-75
2022/01/02 03:23:40;;;;;;;6.55;4.30;;;;;;;7.82;85.18;98394.11;1700610;84;21413;-75
2022/01/02 03:26:18;;;;;;;6.22;4.05;;;;;;;7.74;86.97;98391.99;1802759;79;21085;-75
2022/01/02 03:28:45;;;;;;;6.65;4.15;;;;;;;7.65;85.51;98385.06;1763017;81;21437;-75
2022/01/02 03:31:13;;;;;;;6.83;4.22;;;;;;;7.57;85.60;98392.19;1762340;81;21611;-74
2022/01/02 03:33:40;;;;;;;7.35;4.28;;;;;;;7.45;85.34;98392.75;1762822;81;21032;-74
2022/01/02 03:36:07;;;;;;;5.53;4.37;;;;;;;7.31;85.67;98388.06;1763121;81;21426;-75
2022/01/02 03:38:33;;;;;;;6.08;4.47;;;;;;;7.18;85.86;98404.45;1763023;81;21004;-74
2022/01/02 03:41:00;;;;;;;6.78;4.65;;;;;;;7.06;85.71;98402.80;1758360;80;21012;-75
2022/01/02 03:43:26;;;;;;;6.62;4.10;;;;;;;6.92;85.60;98405.53;1735483;82;21458;-74
2022/01/02 03:45:54;;;;;;;5.90;4.00;;;;;;;6.80;85.82;98399.91;1732793;83;20985;-75
2022/01/02 03:48:22;;;;;;;7.37;4.62;;;;;;;6.67;85.87;98399.13;1732626;83;20985;-75
2022/01/02 03:50:49;;;;;;;8.08;4.30;;;;;;;6.55;86.11;98402.30;1732774;83;21044;-75
2022/01/02 03:53:17;;;;;;;6.03;4.15;;;;;;;6.41;86.00;98403.70;1733322;81;21016;-76
2022/01/02 03:55:44;;;;;;;7.12;4.30;;;;;;;6.30;86.51;98407.71;1732680;83;21430;-75
2022/01/02 03:58:13;;;;;;;7.58;4.37;;;;;;;6.19;86.09;98408.22;1732925;83;21434;-75
2022/01/02 04:00:39;;;;;;;8.30;4.70;;;;;;;6.05;86.22;98406.52;1732708;83;21027;-75
2022/01/02 04:03:06;;;;;;;6.78;4.62;;;;;;;5.95;86.71;98406.95;1732851;83;21068;-75
2022/01/02 04:05:33;;;;;;;5.83;4.20;;;;;;;5.86;86.89;98409.63;1737033;81;20960;-75
2022/01/02 04:08:00;;;;;;;6.47;4.45;;;;;;;5.76;86.84;98403.53;1732672;82;21462;-75
2022/01/02 04:10:27;;;;;;;7.03;5.00;;;;;;;5.67;87.27;98413.66;1732953;82;21403;-75
2022/01/02 04:12:55;;;;;;;7.50;5.03;;;;;;;5.58;87.15;98414.11;1732745;83;21020;-75
2022/01/02 04:15:21;;;;;;;6.80;4.72;;;;;;;5.47;87.17;98408.44;1755812;81;21450;-75
2022/01/02 04:17:48;;;;;;;6.85;4.45;;;;;;;5.40;87.35;98410.66;1762981;81;21013;-75
2022/01/02 04:20:16;;;;;;;7.65;5.40;;;;;;;5.31;88.21;98411.98;1763101;81;20992;-75
2022/01/02 04:22:44;;;;;;;7.87;5.35;;;;;;;5.28;88.58;98413.72;1762931;81;21003;-75
2022/01/02 04:25:12;;;;;;;8.75;5.45;;;;;;;5.28;88.13;98415.49;1742477;81;20985;-75
2022/01/02 04:27:40;;;;;;;11.78;6.15;;;;;;;5.28;88.73;98408.47;1732988;82;21088;-75
2022/01/02 04:30:11;;;;;;;10.05;5.90;;;;;;;5.29;89.20;98405.41;1732937;82;21545;-75
2022/01/02 04:32:39;;;;;;;9.50;5.80;;;;;;;5.27;93.46;98413.29;1742037;81;21036;-75
2022/01/02 04:35:08;;;;;;;7.55;4.83;;;;;;;5.33;89.76;98422.05;1763268;81;21038;-75
2022/01/02 04:37:35;;;;;;;8.30;4.83;;;;;;;5.31;89.52;98425.13;1762642;81;21412;-75
2022/01/02 04:40:03;;;;;;;7.67;4.75;;;;;;;5.26;89.68;98411.97;1762787;81;20973;-75
2022/01/02 04:42:31;;;;;;;6.95;5.22;;;;;;;5.31;95.83;98418.55;1755113;81;21088;-75
2022/01/02 04:44:57;;;;;;;7.70;4.85;;;;;;;5.46;92.22;98415.89;1732576;82;20996;-75
2022/01/02 04:47:24;;;;;;;6.70;5.08;;;;;;;5.47;91.19;98411.49;1732518;82;21093;-76
2022/01/02 04:49:51;;;;;;;7.03;5.25;;;;;;;5.47;90.81;98410.18;1732552;82;21462;-76
2022/01/02 04:52:18;;;;;;;7.80;4.55;;;;;;;5.45;90.84;98418.09;1732877;82;21020;-76
2022/01/02 04:54:44;;;;;;;7.35;4.50;;;;;;;5.62;93.87;98418.05;1733665;81;21001;-76
2022/01/02 04:57:12;;;;;;;7.30;5.00;;;;;;;5.72;92.40;98414.94;1732512;82;20989;-77
2022/01/02 04:59:39;;;;;;;6.95;4.70;;;;;;;5.76;91.79;98418.00;1737599;80;20986;-76
2022/01/02 05:02:06;;;;;;;7.70;4.80;;;;;;;5.74;91.70;98411.00;1760077;81;21016;-76
2022/01/02 05:04:33;;;;;;;7.15;4.67;;;;;;;5.68;92.27;98408.83;1752058;81;21004;-74
2022/01/02 05:07:00;;;;;;;6.87;4.67;;;;;;;5.69;91.44;98418.88;1732502;83;21009;-75
2022/01/02 05:09:26;;;;;;;8.45;4.90;;;;;;;5.68;92.02;98418.03;1732502;83;21079;-75
2022/01/02 05:11:53;;;;;;;5.78;4.20;;;;;;;5.69;91.71;98409.68;1732410;82;21016;-75
2022/01/02 05:14:19;;;;;;;7.60;4.67;;;;;;;5.69;91.41;98422.83;1738552;81;21430;-75
2022/01/02 05:16:47;;;;;;;7.70;4.78;;;;;;;5.61;91.18;98424.63;1762745;81;20969;-75
2022/01/02 05:19:15;;;;;;;6.85;4.55;;;;;;;5.49;90.96;98424.21;1762664;81;21000;-75
2022/01/02 05:21:42;;;;;;;10.60;5.25;;;;;;;5.41;91.48;98418.52;1762665;81;20989;-75
2022/01/02 05:24:08;;;;;;;7.90;5.05;;;;;;;5.35;93.36;98424.25;1749786;81;21394;-75
2022/01/02 05:26:35;;;;;;;7.35;4.53;;;;;;;5.37;92.24;98429.05;1738456;81;20981;-75
2022/01/02 05:29:03;;;;;;;6.35;4.53;;;;;;;5.33;91.81;98422.93;1762771;81;20969;-75
2022/01/02 05:31:30;;;;;;;7.50;4.42;;;;;;;5.27;91.46;98436.05;1762657;81;21040;-75
2022/01/02 05:33:57;;;;;;;6.70;4.72;;;;;;;5.19;91.31;98435.21;1762683;81;21032;-75
2022/01/02 05:36:25;;;;;;;7.72;5.15;;;;;;;5.13;91.57;98440.91;1737929;81;21426;-75
2022/01/02 05:38:53;;;;;;;6.83;4.65;;;;;;;5.04;91.72;98430.82;1732417;82;21064;-75
2022/01/02 05:41:20;;;;;;;7.42;4.95;;;;;;;4.97;91.14;98432.57;1732615;82;20969;-76
2022/01/02 05:43:46;;;;;;;10.18;5.47;;;;;;;4.93;91.56;98432.13;1732590;82;21067;-75
2022/01/02 05:46:14;;;;;;;8.20;5.08;;;;;;;4.88;92.12;98438.28;1737157;81;21401;-76
2022/01/02 05:48:41;;;;;;;8.98;5.75;;;;;;;4.82;91.29;98440.02;1762641;81;21020;-74
2022/01/02 05:51:07;;;;;;;8.70;5.47;;;;;;;4.74;91.34;98440.02;1762809;81;21009;-74
2022/01/02 05:53:35;;;;;;;7.87;5.08;;;;;;;4.68;91.25;98437.36;1762624;81;21052;-75
2022/01/02 05:56:02;;;;;;;9.00;5.15;;;;;;;4.61;91.32;98441.75;1762754;81;21021;-74
2022/01/02 05:58:30;;;;;;;9.40;5.30;;;;;;;4.51;90.81;98439.53;1734262;81;20973;-74
2022/01/02 06:00:56;;;;;;;7.37;5.47;;;;;;;4.42;90.77;98444.76;1732503;82;21497;-74
2022/01/02 06:03:23;;;;;;;9.63;5.53;;;;;;;4.33;90.86;98451.72;1732487;82;21016;-74
2022/01/02 06:05:50;;;;;;;8.38;5.17;;;;;;;4.25;90.65;98450.84;1732646;82;21068;-74
2022/01/02 06:08:17;;;;;;;6.62;4.70;;;;;;;4.18;90.73;98452.98;1732382;83;21357;-74
2022/01/02 06:10:43;;;;;;;11.25;5.35;;;;;;;4.10;90.77;98449.03;1744079;81;20977;-74
2022/01/02 06:13:10;;;;;;;7.62;4.92;;;;;;;4.02;90.85;98450.31;1762829;81;21457;-74
2022/01/02 06:15:37;;;;;;;7.40;4.97;;;;;;;3.97;90.86;98448.11;1762771;81;21020;-75
2022/01/02 06:18:04;;;;;;;7.97;4.67;;;;;;;3.93;90.71;98462.06;1746839;81;21016;-75
2022/01/02 06:20:31;;;;;;;8.03;5.20;;;;;;;3.86;90.78;98458.53;1732431;82;20996;-75
2022/01/02 06:22:58;;;;;;;8.83;5.47;;;;;;;3.82;92.51;98468.59;1733109;81;21060;-76
2022/01/02 06:25:25;;;;;;;9.78;5.62;;;;;;;3.82;91.98;98464.66;1728196;82;21136;-74
2022/01/02 06:27:52;;;;;;;7.70;5.00;;;;;;;3.82;92.84;98465.52;1719387;83;21064;-74
2022/01/02 06:30:18;;;;;;;8.38;4.78;;;;;;;3.83;92.82;98466.41;1719529;83;20954;-74
2022/01/02 06:32:45;;;;;;;8.58;4.65;;;;;;;3.81;95.10;98474.68;1726343;82;21057;-74
2022/01/02 06:35:12;;;;;;;8.13;4.72;;;;;;;3.81;94.00;98469.44;1748863;82;20973;-74
2022/01/02 06:37:39;;;;;;;9.90;5.22;;;;;;;3.80;92.76;98465.95;1749484;81;20978;-74
2022/01/02 06:40:07;;;;;;;7.15;5.10;;;;;;;3.77;92.45;98467.66;1749182;82;20993;-74
2022/01/02 06:42:34;;;;;;;9.98;6.50;;;;;;;3.75;92.30;98468.98;1749119;82;21014;-76
2022/01/02 06:45:00;;;;;;;9.15;6.00;;;;;;;3.74;92.23;98476.84;1748288;81;21002;-76
2022/01/02 06:47:28;;;;;;;10.98;6.83;;;;;;;3.68;93.49;98476.36;1749226;81;21025;-76
2022/01/02 06:49:55;;;;;;;14.05;6.25;;;;;;;3.66;92.97;98471.10;1749200;81;21044;-76
2022/01/02 06:52:22;;;;;;;10.82;6.53;;;;;;;3.71;93.00;98481.63;1749192;81;21025;-76
2022/01/02 06:54:53;;;;;;;12.98;8.13;;;;;;;3.76;94.46;98477.29;1746206;81;21010;-76
2022/01/02 06:57:17;;;;;;;11.63;6.40;;;;;;;3.82;94.08;98472.07;1719287;83;21037;-76
2022/01/02 06:59:43;;;;;;;12.93;6.90;;;;;;;3.90;94.55;98473.42;1719608;83;21033;-76
2022/01/02 07:02:10;;;;;;;12.65;6.53;;;;;;;3.99;95.03;98473.03;1719643;82;21470;-76
2022/01/02 07:04:36;;;;;;;11.20;6.35;;;;;;;4.04;94.17;98472.20;1719463;82;21068;-74
2022/01/02 07:07:03;;;;;;;12.37;7.03;;;;;;;4.13;95.05;98475.70;1729006;82;21034;-78
2022/01/02 07:09:31;;;;;;;13.35;7.60;;;;;;;4.24;94.39;98479.27;1749418;81;21065;-75
2022/01/02 07:12:00;;;;;;;9.93;6.75;;;;;;;4.32;94.55;98474.05;1749148;81;21012;-76
2022/01/02 07:14:27;;;;;;;13.48;7.25;;;;;;;4.42;94.77;98471.89;1749324;82;21036;-76
2022/01/02 07:16:55;;;;;;;10.28;6.22;;;;;;;4.52;94.88;98470.15;1749352;81;20982;-76
2022/01/02 07:19:22;;;;;;;10.78;6.90;;;;;;;4.61;94.43;98473.26;1740006;81;21041;-76
2022/01/02 07:21:50;;;;;;;10.70;6.85;;;;;;;4.70;94.38;98480.27;1719539;83;20996;-76
2022/01/02 07:24:17;;;;;;;10.70;6.70;;;;;;;4.80;94.40;98471.53;1719397;83;21597;-76
2022/01/02 07:26:43;;;;;;;10.70;6.60;;;;;;;4.88;94.03;98470.22;1728170;82;21068;-76
2022/01/02 07:29:11;;;;;;;9.43;6.15;;;;;;;4.95;93.91;98469.37;1732519;82;21011;-76
2022/01/02 07:31:38;;;;;;;11.65;6.25;;;;;;;5.04;93.71;98463.23;1743573;81;21004;-76
2022/01/02 07:34:05;;;;;;;9.40;6.35;;;;;;;5.12;93.72;98469.80;1762672;81;21016;-76
2022/01/02 07:36:31;;;;;;;9.73;6.10;;;;;;;5.18;93.74;98468.94;1762639;81;21064;-76
2022/01/02 07:38:58;;;;;;;12.03;6.30;;;;;;;5.23;93.68;98468.50;1762562;81;21407;-76
2022/01/02 07:41:25;;;;;;;35.80;19.48;;;;;;;5.33;93.64;98471.98;1762304;81;21021;-76
2022/01/02 07:43:53;;;;;;;15.38;8.70;;;;;;;5.39;93.24;98463.66;1747000;81;21043;-76
2022/01/02 07:46:20;;;;;;;10.40;6.85;;;;;;;5.44;92.79;98474.16;1732123;83;21057;-76
2022/01/02 07:48:46;;;;;;;10.75;6.37;;;;;;;5.50;92.51;98468.02;1732478;83;21063;-76
2022/01/02 07:51:13;;;;;;;11.10;6.75;;;;;;;5.55;92.24;98478.09;1735377;81;21032;-76
2022/01/02 07:53:39;;;;;;;10.88;6.85;;;;;;;5.61;92.31;98474.13;1762605;81;20989;-76
2022/01/02 07:56:05;;;;;;;11.08;6.75;;;;;;;5.65;92.06;98468.45;1762663;81;20996;-76
2022/01/02 07:58:32;;;;;;;11.28;7.25;;;;;;;5.68;91.36;98473.25;1762684;81;21430;-76
2022/01/02 08:00:58;;;;;;;12.45;7.47;;;;;;;5.71;91.40;98465.80;1762369;81;21099;-76
2022/01/02 08:03:25;;;;;;;10.98;7.55;;;;;;;5.75;90.99;98460.08;1762250;81;20985;-76
2022/01/02 08:05:51;;;;;;;12.63;7.03;;;;;;;5.80;91.04;98453.94;1762639;81;21044;-76
2022/01/02 08:08:17;;;;;;;9.70;6.65;;;;;;;5.84;91.04;98467.06;1762826;81;21458;-76
2022/01/02 08:10:43;;;;;;;10.68;6.10;;;;;;;5.87;90.28;98463.13;1762579;81;21041;-76
2022/01/02 08:13:10;;;;;;;12.53;7.28;;;;;;;5.90;90.34;98465.75;1762066;81;20997;-76
2022/01/02 08:15:36;;;;;;;10.98;7.40;;;;;;;5.93;90.27;98467.04;1732594;82;21488;-76
2022/01/02 08:18:03;;;;;;;9.85;7.00;;;;;;;5.98;90.08;98466.58;1732512;83;21001;-76
2022/01/02 08:20:30;;;;;;;12.03;7.62;;;;;;;6.00;89.15;98464.84;1732506;83;20972;-76
2022/01/02 08:22:57;;;;;;;13.13;7.53;;;;;;;6.05;88.99;98473.62;1750392;81;21032;-76
2022/01/02 08:25:24;;;;;;;10.40;7.37;;;;;;;6.10;89.55;98467.47;1762590;80;21414;-76
2022/01/02 08:27:50;;;;;;;13.13;8.70;;;;;;;6.16;89.61;98469.64;1762336;81;21008;-77
2022/01/02 08:30:17;;;;;;;13.75;8.40;;;;;;;6.22;88.41;98469.18;1757374;81;21020;-76
2022/01/02 08:32:43;;;;;;;15.13;9.15;;;;;;;6.28;87.81;98482.31;1732537;83;21020;-76
2022/01/02 08:35:10;;;;;;;13.68;8.60;;;;;;;6.33;87.56;98470.00;1732387;82;20985;-75
2022/01/02 08:37:36;;;;;;;16.23;9.40;;;;;;;6.42;88.36;98470.39;1732483;82;21102;-76
2022/01/02 08:40:04;;;;;;;13.53;9.38;;;;;;;6.49;88.51;98464.22;1755444;81;20992;-75
2022/01/02 08:42:31;;;;;;;14.65;8.73;;;;;;;6.58;88.42;98464.60;1762592;81;21422;-77
2022/01/02 08:44:57;;;;;;;14.75;9.45;;;;;;;6.64;88.50;98459.75;1733948;81;20976;-75
2022/01/02 08:47:23;;;;;;;15.72;9.58;;;;;;;6.69;88.48;98461.45;1732576;82;21482;-77
2022/01/02 08:49:50;;;;;;;16.50;9.60;;;;;;;6.79;87.73;98462.71;1752303;81;21031;-75
2022/01/02 08:52:17;;;;;;;15.30;10.38;;;;;;;6.86;87.94;98463.97;1762785;81;21039;-75
2022/01/02 08:54:44;;;;;;;15.75;10.20;;;;;;;6.93;87.77;98456.91;1762620;81;21383;-77
2022/01/02 08:57:10;;;;;;;16.93;10.40;;;;;;;7.00;87.86;98465.21;1757860;81;20960;-78
2022/01/02 08:59:37;;;;;;;16.35;10.95;;;;;;;7.09;87.79;98464.69;1756412;82;20976;-74
2022/01/02 09:02:04;;;;;;;17.57;11.57;;;;;;;7.18;87.81;98465.08;1755944;81;21457;-74
2022/01/02 09:04:30;;;;;;;16.37;10.63;;;;;;;7.28;87.64;98461.47;1732329;82;21056;-77
2022/01/02 09:06:57;;;;;;;17.10;9.40;;;;;;;7.36;87.52;98459.63;1732593;83;21016;-77
2022/01/02 09:09:24;;;;;;;15.08;9.45;;;;;;;7.45;87.28;98464.39;1732352;83;21040;-77
2022/01/02 09:11:51;;;;;;;14.63;9.45;;;;;;;7.55;87.29;98458.59;1732812;81;20993;-77
2022/01/02 09:14:18;;;;;;;16.20;10.00;;;;;;;7.64;87.16;98446.17;1762694;81;21024;-74
2022/01/02 09:16:46;;;;;;;15.43;9.98;;;;;;;7.75;86.55;98450.45;1762606;81;20977;-74
2022/01/02 09:19:14;;;;;;;14.20;8.58;;;;;;;7.91;86.56;98457.34;1762670;81;20993;-74
2022/01/02 09:21:40;;;;;;;14.73;8.63;;;;;;;8.03;86.66;98451.48;1762705;81;20945;-75
2022/01/02 09:24:07;;;;;;;10.50;7.28;;;;;;;8.16;85.10;98446.92;1755399;81;21044;-75
2022/01/02 09:26:33;;;;;;;12.03;7.25;;;;;;;8.25;84.49;98445.48;1740358;81;20982;-75
2022/01/02 09:29:00;;;;;;;11.38;7.47;;;;;;;8.33;84.74;98444.06;1749386;81;21040;-75
2022/01/02 09:31:26;;;;;;;13.38;7.17;;;;;;;8.42;83.89;98443.94;1749228;82;21041;-76
2022/01/02 09:33:53;;;;;;;11.20;6.72;;;;;;;8.51;83.73;98432.83;1749164;81;21423;-76
2022/01/02 09:36:19;;;;;;;10.40;7.10;;;;;;;8.60;83.49;98439.34;1737818;81;21001;-76
2022/01/02 09:38:47;;;;;;;10.78;7.47;;;;;;;8.69;83.07;98428.61;1719510;83;21049;-75
2022/01/02 09:41:14;;;;;;;11.03;6.97;;;;;;;8.78;83.10;98429.38;1719792;82;21033;-76
2022/01/02 09:43:40;;;;;;;11.00;6.50;;;;;;;8.89;83.59;98422.61;1731291;82;21493;-76
2022/01/02 09:46:07;;;;;;;9.23;6.17;;;;;;;8.97;82.42;98421.58;1743183;81;20989;-75
2022/01/02 09:48:34;;;;;;;9.43;6.67;;;;;;;9.05;81.61;98413.52;1738371;81;21403;-75
2022/01/02 09:51:01;;;;;;;12.05;6.42;;;;;;;9.15;82.95;98409.40;1739595;81;21395;-75
2022/01/02 09:53:27;;;;;;;7.00;4.83;;;;;;;9.23;82.22;98401.75;1744563;82;20953;-75
2022/01/02 09:55:55;;;;;;;8.90;5.90;;;;;;;9.32;79.71;98392.80;1746295;82;21470;-76
2022/01/02 09:58:22;;;;;;;8.95;6.28;;;;;;;9.36;78.39;98396.25;1743270;80;21414;-76
2022/01/02 10:00:48;;;;;;;12.55;7.35;;;;;;;9.44;80.17;98400.08;1747389;82;20993;-78
2022/01/02 10:03:16;;;;;;;10.55;7.80;;;;;;;9.51;79.64;98401.73;1750542;81;20961;-78
2022/01/02 10:05:57;;;;;;;10.28;6.97;;;;;;;9.56;78.31;98405.59;1748493;80;21028;-78
2022/01/02 10:08:30;;;;;;;16.05;9.65;;;;;;;9.68;80.02;98399.20;1745823;82;20938;-76
2022/01/02 10:11:10;;;;;;;13.03;9.33;;;;;;;9.77;79.19;98393.73;1746209;82;21025;-77
2022/01/02 10:13:43;;;;;;;11.68;8.18;;;;;;;9.81;79.51;98390.13;1746549;81;20962;-77
2022/01/02 10:16:36;;;;;;;16.70;9.10;;;;;;;9.86;79.77;98390.90;1738156;81;21430;-77
2022/01/02 10:19:29;;;;;;;14.35;8.43;;;;;;;9.92;77.97;98385.91;1741631;82;20913;-77
2022/01/02 10:22:00;;;;;;;15.35;10.32;;;;;;;9.99;79.07;98386.66;1743193;82;21044;-77
2022/01/02 10:24:33;;;;;;;17.90;10.70;;;;;;;10.01;78.71;98390.16;1742858;82;21077;-77
2022/01/02 10:27:11;;;;;;;15.25;10.25;;;;;;;10.01;78.41;98396.78;1742680;82;21479;-76
2022/01/02 10:29:58;;;;;;;15.35;10.50;;;;;;;10.01;77.60;98389.69;1742777;82;21008;-77
2022/01/02 10:32:41;;;;;;;14.07;9.88;;;;;;;10.00;77.90;98387.95;1719923;82;20997;-79
2022/01/02 10:35:21;;;;;;;14.38;10.58;;;;;;;10.01;78.76;98388.37;1719339;82;21017;-78
2022/01/02 10:37:55;;;;;;;14.30;9.25;;;;;;;10.00;78.73;98386.63;1730366;81;20969;-81
2022/01/02 10:40:35;;;;;;;13.18;9.35;;;;;;;9.97;78.58;98388.48;1741624;82;20989;-79
2022/01/02 10:43:07;;;;;;;13.70;9.33;;;;;;;9.94;78.49;98381.47;1746142;82;21411;-80
2022/01/02 10:45:48;;;;;;;15.88;10.32;;;;;;;9.94;78.95;98379.27;1740578;81;20990;-79
2022/01/02 10:48:18;;;;;;;15.05;10.85;;;;;;;9.95;79.18;98375.27;1743496;82;20986;-80
2022/01/02 10:51:17;;;;;;;13.20;9.78;;;;;;;9.95;79.00;98372.62;1739090;82;21044;-80
2022/01/02 10:53:57;;;;;;;14.98;10.18;;;;;;;9.95;78.81;98371.73;1727736;82;20973;-79
2022/01/02 10:56:28;;;;;;;14.45;9.90;;;;;;;9.90;79.08;98366.55;1745251;82;21379;-78
2022/01/02 10:58:59;;;;;;;34.05;18.92;;;;;;;9.93;78.70;98368.26;1745072;82;21393;-80
2022/01/02 11:01:26;;;;;;;16.82;10.20;;;;;;;9.95;79.19;98358.49;1741055;82;20961;-79
2022/01/02 11:03:54;;;;;;;14.95;9.20;;;;;;;9.99;79.03;98357.53;1746628;81;20946;-79
2022/01/02 11:06:33;;;;;;;16.82;9.68;;;;;;;10.01;78.43;98351.30;1746461;81;21406;-79
2022/01/02 11:09:00;;;;;;;18.60;10.90;;;;;;;10.02;78.92;98351.70;1746155;82;20952;-80
2022/01/02 11:11:27;;;;;;;15.58;9.78;;;;;;;10.05;78.64;98349.45;1742447;82;21005;-80
2022/01/02 11:13:56;;;;;;;13.93;9.70;;;;;;;10.15;79.33;98338.22;1745532;82;20973;-81
2022/01/02 11:16:25;;;;;;;14.95;9.73;;;;;;;10.25;79.52;98334.89;1746190;82;21411;-78
2022/01/02 11:18:52;;;;;;;15.35;9.45;;;;;;;10.35;78.93;98327.61;1745874;82;21007;-79
2022/01/02 11:21:20;;;;;;;17.00;11.10;;;;;;;10.40;78.92;98319.11;1745657;82;21549;-79
2022/01/02 11:24:20;;;;;;;15.32;10.50;;;;;;;10.35;77.28;98324.53;1742328;82;20977;-80
2022/01/02 11:26:57;;;;;;;16.87;10.53;;;;;;;10.33;78.28;98319.70;1745261;81;21036;-79
2022/01/02 11:29:28;;;;;;;16.35;10.68;;;;;;;10.42;78.47;98315.51;1745485;82;20933;-80
2022/01/02 11:31:55;;;;;;;16.95;10.60;;;;;;;10.51;77.89;98307.81;1745858;82;21024;-79
2022/01/02 11:34:32;;;;;;;17.87;11.85;;;;;;;10.64;78.22;98305.77;1746106;82;20977;-80
2022/01/02 11:37:16;;;;;;;14.75;10.50;;;;;;;10.78;78.58;98304.08;1745050;82;21028;-81
2022/01/02 11:40:01;;;;;;;14.33;10.95;;;;;;;11.03;78.19;98296.81;1744921;82;20969;-81
2022/01/02 11:42:44;;;;;;;13.80;10.10;;;;;;;11.29;77.65;98295.22;1742621;82;20994;-81
2022/01/02 11:45:26;;;;;;;14.00;9.50;;;;;;;12.20;79.39;98279.36;1742915;82;21017;-80
2022/01/02 11:47:52;;;;;;;15.72;10.63;;;;;;;14.01;72.58;98280.62;1735196;82;21001;-79
2022/01/02 11:50:37;;;;;;;13.48;10.38;;;;;;;15.53;71.58;98276.58;1744629;82;20993;-79
2022/01/02 11:53:23;;;;;;;13.40;9.38;;;;;;;16.42;66.24;98274.68;1745410;82;20977;-80
2022/01/02 11:55:49;;;;;;;13.53;9.48;;;;;;;17.09;59.16;98261.13;1744665;82;21001;-81
2022/01/02 11:58:47;;;;;;;11.57;8.75;;;;;;;17.48;53.79;98254.59;1745954;82;20974;-81